Myra Eckstein — WDF9473 — position and weather

sailwx.info

Track history (hours):
 
Tides and Currents Weather Stations Pressure Air Temp Water Temp Dewpoint Dewpoint Depression Visibility Wind Speed Wind Dir Waves Ship Positions

Myra Eckstein

Owner: Marquette Transportation Co. LLC, Paducah, KY. More information available from US FCC via Universal Licensing System and Coast Guard Vessel Documentation Center.

Last reported at 2017-Apr-27 08:54 UTC. Time now 2017-Apr-27 13:02 UTC.
Position N 32°40' W 091°08'.

Length 47 m.

Type: Towing. MMSI: 367505510.

Date/timePositionNaut miles runAvg speedWind from/ knotsBaromVisibWave heightAir tempDewpointWater temp
2017-Apr-27 08:54N 32°40' W 091°08'2 4.5
2017-Apr-27 08:29N 32°39' W 091°09'2 4.2
2017-Apr-27 08:01N 32°37' W 091°09'2 3.7
2017-Apr-27 07:30N 32°35' W 091°07'2 3.9
2017-Apr-27 07:01N 32°34' W 091°06'2 4.3
2017-Apr-27 06:31N 32°31' W 091°06'2 4.6
2017-Apr-27 06:01N 32°29' W 091°07'2 4.4
2017-Apr-27 05:30N 32°27' W 091°05'2 4.3
2017-Apr-27 05:00N 32°26' W 091°03'2 4.2
2017-Apr-27 04:31N 32°26' W 091°01'1 2.8
2017-Apr-27 04:01N 32°25' W 090°60'2 3.5
2017-Apr-27 03:31N 32°23' W 090°60'2 3.7
2017-Apr-27 03:00N 32°21' W 090°60'2 3.9
2017-Apr-27 02:30N 32°21' W 090°58'2 4.0
2017-Apr-27 02:01N 32°21' W 090°55'2 3.5
2017-Apr-27 01:30N 32°19' W 090°54'2 3.2
2017-Apr-27 01:01N 32°18' W 090°55'2 4.6
2017-Apr-27 00:31N 32°16' W 090°57'2 4.1
2017-Apr-27 00:01N 32°15' W 090°59'2 4.4
2017-Apr-26 23:30N 32°13' W 090°59'2 3.8
2017-Apr-26 23:00N 32°11' W 090°60'2 4.1
2017-Apr-26 22:31N 32°09' W 091°00'2 3.6
2017-Apr-26 21:59N 32°07' W 091°02'2 4.3
2017-Apr-26 21:30N 32°08' W 091°04'2 4.5
2017-Apr-26 21:01N 32°07' W 091°07'5 4.6
2017-Apr-26 19:55N 32°03' W 091°04'20 4.0
2017-Apr-26 14:52N 31°49' W 091°21'3 4.7
2017-Apr-26 14:11N 31°46' W 091°22'75 2.8
2017-Apr-25 11:40N 30°32' W 091°16'  
2017-Apr-19 23:47N 31°59' W 091°06'311.1
2017-Apr-19 23:29N 32°02' W 091°04'5 9.5
2017-Apr-19 23:00N 32°06' W 091°06'3 5.8
2017-Apr-19 22:31N 32°07' W 091°03'4 8.9
2017-Apr-19 22:01N 32°11' W 090°60'510.9
2017-Apr-19 21:30N 32°16' W 090°58'510.0
2017-Apr-19 21:00N 32°20' W 090°54'5 9.2
2017-Apr-19 20:30N 32°21' W 090°60'5 9.1
2017-Apr-19 20:01N 32°26' W 091°01'611.0
2017-Apr-19 19:30N 32°29' W 091°07'510.6
2017-Apr-19 19:01N 32°34' W 091°06'6 9.4
2017-Apr-19 18:21N 32°40' W 091°08'  
Track history (hours):
 
Tides and Currents Weather Stations Pressure Air Temp Water Temp Dewpoint Dewpoint Depression Visibility Wind Speed Wind Dir Waves Ship Positions

Myra Eckstein

Owner: Marquette Transportation Co. LLC, Paducah, KY. More information available from US FCC via Universal Licensing System and Coast Guard Vessel Documentation Center.

Last reported at 2017-Apr-27 08:54 UTC. Time now 2017-Apr-27 13:02 UTC.
Position N 32°40' W 091°08'.

Length 47 m.

Type: Towing. MMSI: 367505510.

Date/timePositionNaut miles runAvg speedWind from/ knotsBaromVisibWave heightAir tempDewpointWater temp
2017-Apr-27 08:54N 32°40' W 091°08'2 4.5
2017-Apr-27 08:29N 32°39' W 091°09'2 4.2
2017-Apr-27 08:01N 32°37' W 091°09'2 3.7
2017-Apr-27 07:30N 32°35' W 091°07'2 3.9
2017-Apr-27 07:01N 32°34' W 091°06'2 4.3
2017-Apr-27 06:31N 32°31' W 091°06'2 4.6
2017-Apr-27 06:01N 32°29' W 091°07'2 4.4
2017-Apr-27 05:30N 32°27' W 091°05'2 4.3
2017-Apr-27 05:00N 32°26' W 091°03'2 4.2
2017-Apr-27 04:31N 32°26' W 091°01'1 2.8
2017-Apr-27 04:01N 32°25' W 090°60'2 3.5
2017-Apr-27 03:31N 32°23' W 090°60'2 3.7
2017-Apr-27 03:00N 32°21' W 090°60'2 3.9
2017-Apr-27 02:30N 32°21' W 090°58'2 4.0
2017-Apr-27 02:01N 32°21' W 090°55'2 3.5
2017-Apr-27 01:30N 32°19' W 090°54'2 3.2
2017-Apr-27 01:01N 32°18' W 090°55'2 4.6
2017-Apr-27 00:31N 32°16' W 090°57'2 4.1
2017-Apr-27 00:01N 32°15' W 090°59'2 4.4
2017-Apr-26 23:30N 32°13' W 090°59'2 3.8
2017-Apr-26 23:00N 32°11' W 090°60'2 4.1
2017-Apr-26 22:31N 32°09' W 091°00'2 3.6
2017-Apr-26 21:59N 32°07' W 091°02'2 4.3
2017-Apr-26 21:30N 32°08' W 091°04'2 4.5
2017-Apr-26 21:01N 32°07' W 091°07'5 4.6
2017-Apr-26 19:55N 32°03' W 091°04'20 4.0
2017-Apr-26 14:52N 31°49' W 091°21'3 4.7
2017-Apr-26 14:11N 31°46' W 091°22'75 2.8
2017-Apr-25 11:40N 30°32' W 091°16'  
2017-Apr-19 23:47N 31°59' W 091°06'311.1
2017-Apr-19 23:29N 32°02' W 091°04'5 9.5
2017-Apr-19 23:00N 32°06' W 091°06'3 5.8
2017-Apr-19 22:31N 32°07' W 091°03'4 8.9
2017-Apr-19 22:01N 32°11' W 090°60'510.9
2017-Apr-19 21:30N 32°16' W 090°58'510.0
2017-Apr-19 21:00N 32°20' W 090°54'5 9.2
2017-Apr-19 20:30N 32°21' W 090°60'5 9.1
2017-Apr-19 20:01N 32°26' W 091°01'611.0
2017-Apr-19 19:30N 32°29' W 091°07'510.6
2017-Apr-19 19:01N 32°34' W 091°06'6 9.4
2017-Apr-19 18:21N 32°40' W 091°08'  

Dump ship's entire track history